Johannesburg, South Africa
Current Conditions -  °F | °C
As of 12:00 AM on Monday 26 Jan 2015 (Local Time) from FAOR Reporting Station
Rain Showers Rain Showers  
Wind Chill: 17°   Ceiling: 4500
Heat Index: 17°   Visibility: 6mi
Dew Point: 12°   Wind: 14mph
Humidity: 72%   Direction: 240°WSW
Pressure: 30.21"   Gusts: NA
Location:  26.19°S, 28.04°E
Report Text: FAOR 252200Z 24012KT 210V270 9999 -SHRA BKN045 FEW050TCU 17/12 Q1023 TEMPO 5000 SHRA
Loading
Personal Weather Stations






























Interactive Weather Map New forecast layout! Learn more

10-Day Weather Forecast

Advertisements
Track Severe Weather on mobile